sensor_id;sensor_type;location;lat;lon;timestamp;pressure;altitude;pressure_sealevel;temperature;humidity
77939;BME280;67136;47.546;21.630;2023-12-28T00:00:51;101123.66;;;4.69;100.00
77939;BME280;67136;47.546;21.630;2023-12-28T00:03:54;101106.44;;;4.68;100.00
77939;BME280;67136;47.546;21.630;2023-12-28T00:06:57;101120.84;;;4.74;100.00
77939;BME280;67136;47.546;21.630;2023-12-28T00:09:59;101120.84;;;4.74;100.00
77939;BME280;67136;47.546;21.630;2023-12-28T00:13:02;101113.84;;;4.76;100.00
77939;BME280;67136;47.546;21.630;2023-12-28T00:16:05;101118.06;;;4.78;100.00
77939;BME280;67136;47.546;21.630;2023-12-28T00:19:07;101116.25;;;4.80;100.00
77939;BME280;67136;47.546;21.630;2023-12-28T00:22:10;101124.66;;;4.85;100.00
77939;BME280;67136;47.546;21.630;2023-12-28T00:25:13;101133.09;;;4.89;100.00
77939;BME280;67136;47.546;21.630;2023-12-28T00:28:16;101129.41;;;4.94;100.00
77939;BME280;67136;47.546;21.630;2023-12-28T00:31:19;101134.44;;;4.97;100.00
77939;BME280;67136;47.546;21.630;2023-12-28T00:34:22;101132.53;;;5.01;100.00
77939;BME280;67136;47.546;21.630;2023-12-28T00:37:24;101141.72;;;5.08;100.00
77939;BME280;67136;47.546;21.630;2023-12-28T00:40:27;101145.78;;;5.14;100.00
77939;BME280;67136;47.546;21.630;2023-12-28T00:43:30;101142.13;;;5.18;100.00
77939;BME280;67136;47.546;21.630;2023-12-28T00:46:34;101143.81;;;5.19;100.00
77939;BME280;67136;47.546;21.630;2023-12-28T00:49:36;101147.88;;;5.24;100.00
77939;BME280;67136;47.546;21.630;2023-12-28T00:52:39;101141.00;;;5.23;100.00
77939;BME280;67136;47.546;21.630;2023-12-28T00:55:42;101148.69;;;5.25;100.00
77939;BME280;67136;47.546;21.630;2023-12-28T00:58:44;101141.84;;;5.24;100.00
77939;BME280;67136;47.546;21.630;2023-12-28T01:01:47;101136.75;;;5.22;100.00
77939;BME280;67136;47.546;21.630;2023-12-28T01:04:50;101141.69;;;5.27;100.00
77939;BME280;67136;47.546;21.630;2023-12-28T01:07:53;101147.59;;;5.30;100.00
77939;BME280;67136;47.546;21.630;2023-12-28T01:10:57;101142.25;;;5.33;100.00
77939;BME280;67136;47.546;21.630;2023-12-28T01:13:59;101142.03;;;5.38;100.00
77939;BME280;67136;47.546;21.630;2023-12-28T01:17:02;101144.34;;;5.44;100.00
77939;BME280;67136;47.546;21.630;2023-12-28T01:20:05;101144.25;;;5.45;100.00
77939;BME280;67136;47.546;21.630;2023-12-28T01:23:09;101130.75;;;5.39;100.00
77939;BME280;67136;47.546;21.630;2023-12-28T01:26:14;101137.19;;;5.49;100.00
77939;BME280;67136;47.546;21.630;2023-12-28T01:29:17;101138.84;;;5.50;100.00
77939;BME280;67136;47.546;21.630;2023-12-28T01:32:19;101139.47;;;5.55;100.00
77939;BME280;67136;47.546;21.630;2023-12-28T01:35:22;101134.28;;;5.55;100.00
77939;BME280;67136;47.546;21.630;2023-12-28T01:38:24;101133.38;;;5.56;100.00
77939;BME280;67136;47.546;21.630;2023-12-28T01:41:27;101131.59;;;5.56;100.00
77939;BME280;67136;47.546;21.630;2023-12-28T01:44:29;101133.31;;;5.57;100.00
77939;BME280;67136;47.546;21.630;2023-12-28T01:47:32;101135.06;;;5.57;100.00
77939;BME280;67136;47.546;21.630;2023-12-28T01:50:35;101126.50;;;5.55;100.00
77939;BME280;67136;47.546;21.630;2023-12-28T01:53:38;101114.31;;;5.57;100.00
77939;BME280;67136;47.546;21.630;2023-12-28T01:56:42;101122.84;;;5.59;100.00
77939;BME280;67136;47.546;21.630;2023-12-28T01:59:45;101114.13;;;5.60;100.00
77939;BME280;67136;47.546;21.630;2023-12-28T02:02:48;101110.81;;;5.58;100.00
77939;BME280;67136;47.546;21.630;2023-12-28T02:05:51;101105.63;;;5.58;100.00
77939;BME280;67136;47.546;21.630;2023-12-28T02:08:54;101111.56;;;5.60;100.00
77939;BME280;67136;47.546;21.630;2023-12-28T02:11:57;101098.59;;;5.60;100.00
77939;BME280;67136;47.546;21.630;2023-12-28T02:15:00;101097.75;;;5.59;100.00
77939;BME280;67136;47.546;21.630;2023-12-28T02:18:11;101100.28;;;5.61;100.00
77939;BME280;67136;47.546;21.630;2023-12-28T02:21:15;101096.91;;;5.59;100.00
77939;BME280;67136;47.546;21.630;2023-12-28T02:24:18;101100.28;;;5.61;100.00
77939;BME280;67136;47.546;21.630;2023-12-28T02:27:21;101090.06;;;5.58;100.00
77939;BME280;67136;47.546;21.630;2023-12-28T02:30:24;101096.75;;;5.62;100.00
77939;BME280;67136;47.546;21.630;2023-12-28T02:33:41;101094.16;;;5.62;100.00
77939;BME280;67136;47.546;21.630;2023-12-28T02:36:47;101096.75;;;5.62;100.00
77939;BME280;67136;47.546;21.630;2023-12-28T02:39:51;101091.56;;;5.62;100.00
77939;BME280;67136;47.546;21.630;2023-12-28T02:42:55;101067.16;;;5.49;100.00
77939;BME280;67136;47.546;21.630;2023-12-28T02:45:59;101086.22;;;5.65;100.00
77939;BME280;67136;47.546;21.630;2023-12-28T02:49:02;101083.78;;;5.62;100.00
77939;BME280;67136;47.546;21.630;2023-12-28T02:52:07;101067.44;;;5.60;100.00
77939;BME280;67136;47.546;21.630;2023-12-28T02:55:09;101070.75;;;5.63;100.00
77939;BME280;67136;47.546;21.630;2023-12-28T02:58:12;101063.44;;;5.54;100.00
77939;BME280;67136;47.546;21.630;2023-12-28T03:01:15;101058.25;;;5.54;100.00
77939;BME280;67136;47.546;21.630;2023-12-28T03:04:19;101060.44;;;5.62;100.00
77939;BME280;67136;47.546;21.630;2023-12-28T03:07:21;101056.63;;;5.52;100.00
77939;BME280;67136;47.546;21.630;2023-12-28T03:10:24;101048.84;;;5.52;100.00
77939;BME280;67136;47.546;21.630;2023-12-28T03:13:27;101046.84;;;5.57;100.00
77939;BME280;67136;47.546;21.630;2023-12-28T03:16:30;101064.41;;;5.52;100.00
77939;BME280;67136;47.546;21.630;2023-12-28T03:19:36;101051.44;;;5.52;100.00
77939;BME280;67136;47.546;21.630;2023-12-28T03:22:39;101054.03;;;5.52;100.00
77939;BME280;67136;47.546;21.630;2023-12-28T03:25:41;101048.00;;;5.51;100.00
77939;BME280;67136;47.546;21.630;2023-12-28T03:28:44;101048.84;;;5.52;100.00
77939;BME280;67136;47.546;21.630;2023-12-28T03:31:47;101048.84;;;5.52;100.00
77939;BME280;67136;47.546;21.630;2023-12-28T03:34:50;101044.34;;;5.55;100.00
77939;BME280;67136;47.546;21.630;2023-12-28T03:37:53;101040.97;;;5.53;100.00
77939;BME280;67136;47.546;21.630;2023-12-28T03:40:55;101034.06;;;5.54;100.00
77939;BME280;67136;47.546;21.630;2023-12-28T03:43:58;101024.56;;;5.53;100.00
77939;BME280;67136;47.546;21.630;2023-12-28T03:47:01;101015.03;;;5.53;100.00
77939;BME280;67136;47.546;21.630;2023-12-28T03:50:03;101009.87;;;5.53;100.00
77939;BME280;67136;47.546;21.630;2023-12-28T03:53:06;101015.91;;;5.54;100.00
77939;BME280;67136;47.546;21.630;2023-12-28T03:56:19;101007.19;;;5.55;100.00
77939;BME280;67136;47.546;21.630;2023-12-28T03:59:22;101001.19;;;5.54;100.00
77939;BME280;67136;47.546;21.630;2023-12-28T04:02:26;100996.81;;;5.55;100.00
77939;BME280;67136;47.546;21.630;2023-12-28T04:05:33;100995.91;;;5.56;100.00
77939;BME280;67136;47.546;21.630;2023-12-28T04:08:35;101000.00;;;5.60;100.00
77939;BME280;67136;47.546;21.630;2023-12-28T04:11:38;101002.78;;;5.57;100.00
77939;BME280;67136;47.546;21.630;2023-12-28T04:14:41;101003.69;;;5.56;100.00
77939;BME280;67136;47.546;21.630;2023-12-28T04:17:44;100987.44;;;5.52;100.00
77939;BME280;67136;47.546;21.630;2023-12-28T04:20:47;100997.81;;;5.52;100.00
77939;BME280;67136;47.546;21.630;2023-12-28T04:23:50;100991.78;;;5.52;100.00
77939;BME280;67136;47.546;21.630;2023-12-28T04:26:52;100985.75;;;5.51;100.00
77939;BME280;67136;47.546;21.630;2023-12-28T04:29:55;100986.59;;;5.52;100.00
77939;BME280;67136;47.546;21.630;2023-12-28T04:32:58;100989.19;;;5.52;100.00
77939;BME280;67136;47.546;21.630;2023-12-28T04:36:01;100995.06;;;5.55;100.00
77939;BME280;67136;47.546;21.630;2023-12-28T04:39:08;100987.28;;;5.55;100.00
77939;BME280;67136;47.546;21.630;2023-12-28T04:42:11;100989.87;;;5.55;100.00
77939;BME280;67136;47.546;21.630;2023-12-28T04:45:13;100988.12;;;5.56;99.81
77939;BME280;67136;47.546;21.630;2023-12-28T04:48:16;101001.03;;;5.57;99.90
77939;BME280;67136;47.546;21.630;2023-12-28T04:51:23;101000.00;;;5.60;99.69
77939;BME280;67136;47.546;21.630;2023-12-28T04:54:26;100985.38;;;5.59;99.14
77939;BME280;67136;47.546;21.630;2023-12-28T04:57:28;100990.41;;;5.62;98.34
77939;BME280;67136;47.546;21.630;2023-12-28T05:00:31;100979.13;;;5.63;97.60
77939;BME280;67136;47.546;21.630;2023-12-28T05:03:33;100980.78;;;5.64;97.20
77939;BME280;67136;47.546;21.630;2023-12-28T05:06:36;100978.12;;;5.65;97.06
77939;BME280;67136;47.546;21.630;2023-12-28T05:09:39;100980.78;;;5.64;97.10
77939;BME280;67136;47.546;21.630;2023-12-28T05:12:41;100984.16;;;5.66;96.59
77939;BME280;67136;47.546;21.630;2023-12-28T05:15:46;100982.47;;;5.65;96.87
77939;BME280;67136;47.546;21.630;2023-12-28T05:18:49;100985.97;;;5.64;96.96
77939;BME280;67136;47.546;21.630;2023-12-28T05:21:52;100981.72;;;5.63;96.47
77939;BME280;67136;47.546;21.630;2023-12-28T05:24:55;100980.97;;;5.61;96.34
77939;BME280;67136;47.546;21.630;2023-12-28T05:27:57;100971.03;;;5.52;96.32
77939;BME280;67136;47.546;21.630;2023-12-28T05:31:01;100977.38;;;5.46;96.64
77939;BME280;67136;47.546;21.630;2023-12-28T05:34:03;100977.00;;;5.37;97.33
77939;BME280;67136;47.546;21.630;2023-12-28T05:37:08;100968.47;;;5.00;99.26
77939;BME280;67136;47.546;21.630;2023-12-28T05:40:10;100964.03;;;4.85;100.00
77939;BME280;67136;47.546;21.630;2023-12-28T05:43:13;100962.63;;;4.78;100.00
77939;BME280;67136;47.546;21.630;2023-12-28T05:46:16;100969.03;;;4.71;100.00
77939;BME280;67136;47.546;21.630;2023-12-28T05:49:19;100972.56;;;4.52;100.00
77939;BME280;67136;47.546;21.630;2023-12-28T05:52:22;100979.31;;;4.54;100.00
77939;BME280;67136;47.546;21.630;2023-12-28T05:55:25;100981.28;;;4.49;100.00
77939;BME280;67136;47.546;21.630;2023-12-28T05:58:27;100989.00;;;4.51;100.00
77939;BME280;67136;47.546;21.630;2023-12-28T06:01:30;100990.53;;;4.36;100.00
77939;BME280;67136;47.546;21.630;2023-12-28T06:04:32;100976.69;;;4.37;100.00
77939;BME280;67136;47.546;21.630;2023-12-28T06:07:36;100974.72;;;4.24;100.00
77939;BME280;67136;47.546;21.630;2023-12-28T06:10:39;100981.66;;;4.23;100.00
77939;BME280;67136;47.546;21.630;2023-12-28T06:13:41;100981.44;;;4.28;100.00
77939;BME280;67136;47.546;21.630;2023-12-28T06:16:44;100969.47;;;4.25;100.00
77939;BME280;67136;47.546;21.630;2023-12-28T06:19:46;100975.91;;;4.17;100.00
77939;BME280;67136;47.546;21.630;2023-12-28T06:22:49;100984.03;;;4.09;100.00
77939;BME280;67136;47.546;21.630;2023-12-28T06:25:52;100982.22;;;4.11;100.00
77939;BME280;67136;47.546;21.630;2023-12-28T06:28:57;100984.31;;;4.03;100.00
77939;BME280;67136;47.546;21.630;2023-12-28T06:31:59;100987.53;;;4.08;100.00
77939;BME280;67136;47.546;21.630;2023-12-28T06:35:02;100989.13;;;4.11;100.00
77939;BME280;67136;47.546;21.630;2023-12-28T06:38:05;100988.28;;;4.10;100.00
77939;BME280;67136;47.546;21.630;2023-12-28T06:41:12;100988.41;;;4.07;100.00
77939;BME280;67136;47.546;21.630;2023-12-28T06:44:15;100989.19;;;4.09;100.00
77939;BME280;67136;47.546;21.630;2023-12-28T06:47:17;100989.84;;;4.14;100.00
77939;BME280;67136;47.546;21.630;2023-12-28T06:50:20;100986.31;;;4.15;100.00
77939;BME280;67136;47.546;21.630;2023-12-28T06:53:23;100976.91;;;4.14;100.00
77939;BME280;67136;47.546;21.630;2023-12-28T06:56:25;100984.72;;;4.13;100.00
77939;BME280;67136;47.546;21.630;2023-12-28T06:59:31;100988.41;;;4.07;100.00
77939;BME280;67136;47.546;21.630;2023-12-28T07:02:33;100979.94;;;4.04;100.00
77939;BME280;67136;47.546;21.630;2023-12-28T07:05:36;100992.19;;;4.00;100.00
77939;BME280;67136;47.546;21.630;2023-12-28T07:08:39;100994.38;;;4.09;100.00
77939;BME280;67136;47.546;21.630;2023-12-28T07:11:42;100988.78;;;4.18;100.00
77939;BME280;67136;47.546;21.630;2023-12-28T07:14:44;100998.00;;;4.42;100.00
77939;BME280;67136;47.546;21.630;2023-12-28T07:17:47;100996.13;;;4.64;100.00
77939;BME280;67136;47.546;21.630;2023-12-28T07:20:50;100997.25;;;4.94;100.00
77939;BME280;67136;47.546;21.630;2023-12-28T07:23:52;100990.91;;;5.36;100.00
77939;BME280;67136;47.546;21.630;2023-12-28T07:26:55;100996.97;;;5.69;100.00
77939;BME280;67136;47.546;21.630;2023-12-28T07:29:58;100995.78;;;5.91;97.45
77939;BME280;67136;47.546;21.630;2023-12-28T07:33:00;100976.59;;;6.11;96.33
77939;BME280;67136;47.546;21.630;2023-12-28T07:36:03;100986.44;;;6.53;93.31
77939;BME280;67136;47.546;21.630;2023-12-28T07:39:08;100988.16;;;6.99;89.72
77939;BME280;67136;47.546;21.630;2023-12-28T07:42:10;100986.03;;;6.60;91.46
77939;BME280;67136;47.546;21.630;2023-12-28T07:45:13;100985.97;;;6.76;89.72
77939;BME280;67136;47.546;21.630;2023-12-28T07:48:16;100984.81;;;6.97;87.80
77939;BME280;67136;47.546;21.630;2023-12-28T07:51:22;100983.38;;;7.65;85.39
77939;BME280;67136;47.546;21.630;2023-12-28T07:54:25;100987.53;;;7.83;80.86
77939;BME280;67136;47.546;21.630;2023-12-28T07:57:27;100981.94;;;7.89;81.18
77939;BME280;67136;47.546;21.630;2023-12-28T08:00:30;100975.00;;;8.58;78.96
77939;BME280;67136;47.546;21.630;2023-12-28T08:03:33;100970.00;;;8.41;78.67
77939;BME280;67136;47.546;21.630;2023-12-28T08:06:36;100972.31;;;8.86;77.63
77939;BME280;67136;47.546;21.630;2023-12-28T08:09:38;100965.81;;;8.79;75.62
77939;BME280;67136;47.546;21.630;2023-12-28T08:12:41;100963.69;;;8.98;74.58
77939;BME280;67136;47.546;21.630;2023-12-28T08:15:45;100966.84;;;9.67;70.31
77939;BME280;67136;47.546;21.630;2023-12-28T08:18:49;100963.16;;;11.38;64.47
77939;BME280;67136;47.546;21.630;2023-12-28T08:21:52;100972.97;;;11.47;62.14
77939;BME280;67136;47.546;21.630;2023-12-28T08:24:55;100964.94;;;12.05;60.11
77939;BME280;67136;47.546;21.630;2023-12-28T08:27:58;100970.91;;;10.58;65.09
77939;BME280;67136;47.546;21.630;2023-12-28T08:31:01;100977.44;;;9.39;67.85
77939;BME280;67136;47.546;21.630;2023-12-28T08:34:03;100980.81;;;9.54;69.84
77939;BME280;67136;47.546;21.630;2023-12-28T08:37:06;100978.06;;;10.90;63.92
77939;BME280;67136;47.546;21.630;2023-12-28T08:40:09;100985.31;;;11.45;62.11
77939;BME280;67136;47.546;21.630;2023-12-28T08:43:12;100984.56;;;10.38;65.81
77939;BME280;67136;47.546;21.630;2023-12-28T08:46:14;100981.44;;;10.33;64.27
77939;BME280;67136;47.546;21.630;2023-12-28T08:49:17;100996.09;;;9.72;68.88
77939;BME280;67136;47.546;21.630;2023-12-28T08:52:20;100994.59;;;9.68;67.19
77939;BME280;67136;47.546;21.630;2023-12-28T08:55:22;100989.59;;;8.87;72.08
77939;BME280;67136;47.546;21.630;2023-12-28T08:58:25;100982.59;;;9.02;72.40
77939;BME280;67136;47.546;21.630;2023-12-28T09:01:28;100988.91;;;9.24;71.96
77939;BME280;67136;47.546;21.630;2023-12-28T09:04:34;100987.97;;;10.15;67.37
77939;BME280;67136;47.546;21.630;2023-12-28T09:07:37;100987.97;;;10.15;66.45
77939;BME280;67136;47.546;21.630;2023-12-28T09:10:45;100988.22;;;10.71;65.47
77939;BME280;67136;47.546;21.630;2023-12-28T09:13:47;100997.78;;;10.60;63.80
77939;BME280;67136;47.546;21.630;2023-12-28T09:16:50;100987.09;;;11.45;61.54
77939;BME280;67136;47.546;21.630;2023-12-28T09:19:53;100993.44;;;11.53;61.08
77939;BME280;67136;47.546;21.630;2023-12-28T09:22:56;100989.16;;;10.94;62.43
77939;BME280;67136;47.546;21.630;2023-12-28T09:26:00;100989.69;;;11.68;60.37
77939;BME280;67136;47.546;21.630;2023-12-28T09:29:03;100981.44;;;11.62;59.43
77939;BME280;67136;47.546;21.630;2023-12-28T09:32:06;100970.69;;;12.75;56.56
77939;BME280;67136;47.546;21.630;2023-12-28T09:35:09;100965.09;;;12.69;56.89
77939;BME280;67136;47.546;21.630;2023-12-28T09:38:11;100965.56;;;13.16;55.43
77939;BME280;67136;47.546;21.630;2023-12-28T09:41:15;100962.47;;;12.69;55.44
77939;BME280;67136;47.546;21.630;2023-12-28T09:44:19;100951.59;;;14.38;51.68
77939;BME280;67136;47.546;21.630;2023-12-28T09:47:22;100954.28;;;12.94;54.09
77939;BME280;67136;47.546;21.630;2023-12-28T09:50:24;100946.72;;;13.11;54.52
77939;BME280;67136;47.546;21.630;2023-12-28T09:53:29;100948.47;;;13.22;54.11
77939;BME280;67136;47.546;21.630;2023-12-28T09:56:32;100939.91;;;13.09;53.43
77939;BME280;67136;47.546;21.630;2023-12-28T09:59:35;100940.12;;;13.58;53.52
77939;BME280;67136;47.546;21.630;2023-12-28T10:02:39;100936.53;;;14.19;51.36
77939;BME280;67136;47.546;21.630;2023-12-28T10:05:44;100937.59;;;14.07;51.17
77939;BME280;67136;47.546;21.630;2023-12-28T10:08:48;100930.19;;;13.41;53.16
77939;BME280;67136;47.546;21.630;2023-12-28T10:11:52;100924.06;;;13.31;53.78
77939;BME280;67136;47.546;21.630;2023-12-28T10:14:55;100915.03;;;12.92;55.13
77939;BME280;67136;47.546;21.630;2023-12-28T10:17:57;100916.88;;;13.33;53.62
77939;BME280;67136;47.546;21.630;2023-12-28T10:21:00;100923.56;;;13.37;53.96
77939;BME280;67136;47.546;21.630;2023-12-28T10:24:03;100916.06;;;13.01;55.58
77939;BME280;67136;47.546;21.630;2023-12-28T10:27:06;100915.69;;;12.74;55.50
77939;BME280;67136;47.546;21.630;2023-12-28T10:30:09;100912.97;;;13.48;54.10
77939;BME280;67136;47.546;21.630;2023-12-28T10:33:16;100904.28;;;13.27;54.52
77939;BME280;67136;47.546;21.630;2023-12-28T10:36:22;100894.72;;;13.46;53.79
77939;BME280;67136;47.546;21.630;2023-12-28T10:39:28;100896.19;;;13.69;52.52
77939;BME280;67136;47.546;21.630;2023-12-28T10:42:49;100877.81;;;14.09;52.13
77939;BME280;67136;47.546;21.630;2023-12-28T10:45:55;100872.59;;;13.79;52.34
77939;BME280;67136;47.546;21.630;2023-12-28T10:49:02;100874.09;;;13.72;52.89
77939;BME280;67136;47.546;21.630;2023-12-28T10:52:08;100868.59;;;13.04;55.51
77939;BME280;67136;47.546;21.630;2023-12-28T10:55:50;100854.28;;;15.32;49.82
77939;BME280;67136;47.546;21.630;2023-12-28T11:02:08;100853.19;;;15.44;47.55
77939;BME280;67136;47.546;21.630;2023-12-28T11:05:12;100848.16;;;14.56;49.55
77939;BME280;67136;47.546;21.630;2023-12-28T11:08:17;100849.78;;;14.95;48.62
77939;BME280;67136;47.546;21.630;2023-12-28T11:11:21;100837.37;;;15.98;45.74
77939;BME280;67136;47.546;21.630;2023-12-28T11:14:27;100838.44;;;14.85;48.60
77939;BME280;67136;47.546;21.630;2023-12-28T11:17:31;100822.63;;;15.51;46.36
77939;BME280;67136;47.546;21.630;2023-12-28T11:20:34;100819.47;;;14.72;47.34
77939;BME280;67136;47.546;21.630;2023-12-28T11:23:37;100812.38;;;16.02;44.77
77939;BME280;67136;47.546;21.630;2023-12-28T11:26:41;100807.22;;;15.10;47.01
77939;BME280;67136;47.546;21.630;2023-12-28T11:29:43;100807.09;;;15.48;46.40
77939;BME280;67136;47.546;21.630;2023-12-28T11:32:47;100813.56;;;15.90;45.16
77939;BME280;67136;47.546;21.630;2023-12-28T11:35:52;100811.59;;;16.54;42.91
77939;BME280;67136;47.546;21.630;2023-12-28T11:38:57;100799.28;;;15.56;45.87
77939;BME280;67136;47.546;21.630;2023-12-28T11:42:07;100803.00;;;15.90;44.10
77939;BME280;67136;47.546;21.630;2023-12-28T11:45:11;100798.97;;;16.13;43.66
77939;BME280;67136;47.546;21.630;2023-12-28T11:48:24;100787.03;;;15.64;45.47
77939;BME280;67136;47.546;21.630;2023-12-28T11:51:28;100787.03;;;15.64;45.08
77939;BME280;67136;47.546;21.630;2023-12-28T11:54:31;100771.63;;;15.33;46.82
77939;BME280;67136;47.546;21.630;2023-12-28T11:57:34;100777.91;;;16.91;43.21
77939;BME280;67136;47.546;21.630;2023-12-28T12:00:39;100766.53;;;16.03;45.36
77939;BME280;67136;47.546;21.630;2023-12-28T12:03:42;100766.63;;;16.29;44.65
77939;BME280;67136;47.546;21.630;2023-12-28T12:06:46;100757.31;;;18.76;40.91
77939;BME280;67136;47.546;21.630;2023-12-28T12:09:59;100756.81;;;16.39;44.79
77939;BME280;67136;47.546;21.630;2023-12-28T12:13:03;100750.81;;;15.39;47.82
77939;BME280;67136;47.546;21.630;2023-12-28T12:16:06;100751.94;;;15.91;47.08
77939;BME280;67136;47.546;21.630;2023-12-28T12:19:10;100747.91;;;15.87;46.48
77939;BME280;67136;47.546;21.630;2023-12-28T12:22:14;100746.56;;;16.36;45.78
77939;BME280;67136;47.546;21.630;2023-12-28T12:25:17;100744.44;;;15.42;46.91
77939;BME280;67136;47.546;21.630;2023-12-28T12:28:22;100743.03;;;16.09;46.08
77939;BME280;67136;47.546;21.630;2023-12-28T12:31:25;100734.31;;;15.64;47.67
77939;BME280;67136;47.546;21.630;2023-12-28T12:34:29;100723.03;;;16.60;45.40
77939;BME280;67136;47.546;21.630;2023-12-28T12:37:32;100730.94;;;15.72;48.58
77939;BME280;67136;47.546;21.630;2023-12-28T12:40:34;100723.28;;;16.31;47.40
77939;BME280;67136;47.546;21.630;2023-12-28T12:43:37;100724.72;;;16.26;46.79
77939;BME280;67136;47.546;21.630;2023-12-28T12:46:39;100718.00;;;16.31;47.13
77939;BME280;67136;47.546;21.630;2023-12-28T12:49:42;100725.03;;;16.23;46.94
77939;BME280;67136;47.546;21.630;2023-12-28T12:52:47;100730.97;;;16.07;46.56
77939;BME280;67136;47.546;21.630;2023-12-28T12:55:54;100717.50;;;15.48;47.92
77939;BME280;67136;47.546;21.630;2023-12-28T12:58:57;100713.53;;;15.61;47.95
77939;BME280;67136;47.546;21.630;2023-12-28T13:02:00;100712.69;;;15.07;48.80
77939;BME280;67136;47.546;21.630;2023-12-28T13:05:04;100704.69;;;18.41;41.98
77939;BME280;67136;47.546;21.630;2023-12-28T13:08:07;100707.97;;;15.82;47.30
77939;BME280;67136;47.546;21.630;2023-12-28T13:11:10;100699.56;;;14.87;50.15
77939;BME280;67136;47.546;21.630;2023-12-28T13:14:13;100699.00;;;16.10;48.51
77939;BME280;67136;47.546;21.630;2023-12-28T13:17:15;100696.97;;;15.69;48.50
77939;BME280;67136;47.546;21.630;2023-12-28T13:20:19;100695.97;;;16.40;47.99
77939;BME280;67136;47.546;21.630;2023-12-28T13:23:21;100678.03;;;15.02;50.06
77939;BME280;67136;47.546;21.630;2023-12-28T13:26:24;100691.59;;;15.61;48.05
77939;BME280;67136;47.546;21.630;2023-12-28T13:29:27;100692.34;;;16.41;46.00
77939;BME280;67136;47.546;21.630;2023-12-28T13:32:29;100685.97;;;14.46;50.82
77939;BME280;67136;47.546;21.630;2023-12-28T13:35:32;100678.69;;;14.76;51.20
77939;BME280;67136;47.546;21.630;2023-12-28T13:38:38;100678.53;;;15.15;50.01
77939;BME280;67136;47.546;21.630;2023-12-28T13:41:41;100676.41;;;14.45;52.51
77939;BME280;67136;47.546;21.630;2023-12-28T13:44:44;100664.78;;;12.73;58.15
77939;BME280;67136;47.546;21.630;2023-12-28T13:47:46;100666.00;;;13.38;55.64
77939;BME280;67136;47.546;21.630;2023-12-28T13:50:49;100672.81;;;13.69;55.88
77939;BME280;67136;47.546;21.630;2023-12-28T13:53:54;100676.84;;;14.02;54.55
77939;BME280;67136;47.546;21.630;2023-12-28T13:56:56;100665.38;;;12.56;58.53
77939;BME280;67136;47.546;21.630;2023-12-28T14:00:01;100680.34;;;13.25;59.21
77939;BME280;67136;47.546;21.630;2023-12-28T14:03:12;100682.06;;;14.50;53.49
77939;BME280;67136;47.546;21.630;2023-12-28T14:06:15;100676.84;;;14.12;55.27
77939;BME280;67136;47.546;21.630;2023-12-28T14:09:18;100677.69;;;14.31;54.58
77939;BME280;67136;47.546;21.630;2023-12-28T14:12:22;100683.16;;;13.03;59.11
77939;BME280;67136;47.546;21.630;2023-12-28T14:15:25;100676.78;;;12.75;60.36
77939;BME280;67136;47.546;21.630;2023-12-28T14:18:28;100676.97;;;12.83;60.57
77939;BME280;67136;47.546;21.630;2023-12-28T14:21:37;100672.81;;;13.11;60.52
77939;BME280;67136;47.546;21.630;2023-12-28T14:24:40;100676.88;;;12.43;63.00
77939;BME280;67136;47.546;21.630;2023-12-28T14:27:44;100672.78;;;11.35;68.16
77939;BME280;67136;47.546;21.630;2023-12-28T14:30:47;100674.16;;;10.18;73.86
77939;BME280;67136;47.546;21.630;2023-12-28T14:33:50;100672.06;;;9.52;77.93
77939;BME280;67136;47.546;21.630;2023-12-28T14:36:53;100677.09;;;9.19;81.11
77939;BME280;67136;47.546;21.630;2023-12-28T14:39:56;100678.25;;;9.02;82.32
77939;BME280;67136;47.546;21.630;2023-12-28T14:42:58;100679.62;;;8.82;85.05
77939;BME280;67136;47.546;21.630;2023-12-28T14:46:01;100664.41;;;8.64;86.33
77939;BME280;67136;47.546;21.630;2023-12-28T14:49:05;100658.50;;;8.49;87.81
77939;BME280;67136;47.546;21.630;2023-12-28T14:52:08;100655.88;;;8.37;88.93
77939;BME280;67136;47.546;21.630;2023-12-28T14:55:10;100662.91;;;8.22;90.55
77939;BME280;67136;47.546;21.630;2023-12-28T14:58:13;100645.19;;;8.02;90.92
77939;BME280;67136;47.546;21.630;2023-12-28T15:01:18;100642.88;;;7.98;92.29
77939;BME280;67136;47.546;21.630;2023-12-28T15:04:22;100646.63;;;7.94;92.76
77939;BME280;67136;47.546;21.630;2023-12-28T15:07:28;100632.84;;;7.79;93.09
77939;BME280;67136;47.546;21.630;2023-12-28T15:10:31;100645.06;;;7.65;94.14
77939;BME280;67136;47.546;21.630;2023-12-28T15:13:34;100640.03;;;7.49;95.50
77939;BME280;67136;47.546;21.630;2023-12-28T15:16:37;100647.94;;;7.47;95.98
77939;BME280;67136;47.546;21.630;2023-12-28T15:19:40;100640.91;;;7.35;97.19
77939;BME280;67136;47.546;21.630;2023-12-28T15:22:43;100636.03;;;7.17;98.79
77939;BME280;67136;47.546;21.630;2023-12-28T15:25:46;100636.50;;;7.09;99.47
77939;BME280;67136;47.546;21.630;2023-12-28T15:28:49;100626.50;;;7.03;100.00
77939;BME280;67136;47.546;21.630;2023-12-28T15:31:52;100634.72;;;6.83;100.00
77939;BME280;67136;47.546;21.630;2023-12-28T15:34:54;100633.22;;;6.79;100.00
77939;BME280;67136;47.546;21.630;2023-12-28T15:37:57;100637.31;;;6.69;100.00
77939;BME280;67136;47.546;21.630;2023-12-28T15:41:00;100638.69;;;6.61;100.00
77939;BME280;67136;47.546;21.630;2023-12-28T15:44:04;100635.75;;;6.53;100.00
77939;BME280;67136;47.546;21.630;2023-12-28T15:47:06;100634.63;;;6.43;100.00
77939;BME280;67136;47.546;21.630;2023-12-28T15:50:09;100633.78;;;6.42;100.00
77939;BME280;67136;47.546;21.630;2023-12-28T15:53:12;100641.94;;;6.36;100.00